Time;durP1;ratioP1;P1;durP2;ratioP2;P2;SDS_P1;SDS_P2;PMS_P1;PMS_P2;Temp;Humidity;BMP_temperature;BMP_pressure;BME280_temperature;BME280_humidity;BME280_pressure;Samples;Min_cycle;Max_cycle;Signal;HPM_P1;HPM_P2
2022/08/26 00:01:00;;;;;;;1138.67;999.90;;;26.60;92.50;;;;;;5055633;28;20524;-83
2022/08/26 00:03:26;;;;;;;1147.20;999.90;;;26.60;92.60;;;;;;5048571;28;20457;-83
2022/08/26 00:05:54;;;;;;;1157.47;999.90;;;26.60;92.60;;;;;;5052351;28;21183;-83
2022/08/26 00:08:22;;;;;;;1152.93;999.90;;;26.60;92.60;;;;;;5049796;28;20530;-83
2022/08/26 00:10:49;;;;;;;1148.90;999.90;;;26.60;92.70;;;;;;5057181;28;20452;-83
2022/08/26 00:13:17;;;;;;;1139.50;999.90;;;26.60;92.70;;;;;;5043009;28;20855;-82
2022/08/26 00:15:45;;;;;;;1145.40;999.90;;;26.60;92.80;;;;;;5039558;28;20460;-82
2022/08/26 00:18:12;;;;;;;1149.07;999.90;;;26.50;92.80;;;;;;5031966;28;20437;-83
2022/08/26 00:20:39;;;;;;;1152.37;999.90;;;26.50;92.80;;;;;;5038011;28;20478;-82
2022/08/26 00:23:07;;;;;;;1148.87;999.90;;;26.50;92.90;;;;;;5040561;28;20493;-82
2022/08/26 00:25:34;;;;;;;1139.93;999.90;;;26.50;92.90;;;;;;5045950;28;20450;-82
2022/08/26 00:28:01;;;;;;;1141.90;999.90;;;26.50;93.00;;;;;;5055099;28;20877;-82
2022/08/26 00:30:30;;;;;;;1143.87;999.90;;;26.50;93.00;;;;;;5056436;28;20431;-82
2022/08/26 00:32:58;;;;;;;1144.70;999.90;;;26.50;93.10;;;;;;5068741;28;20472;-81
2022/08/26 00:35:25;;;;;;;1147.73;999.90;;;26.40;93.10;;;;;;5067522;28;20984;-81
2022/08/26 00:37:52;;;;;;;1134.17;999.90;;;26.40;93.10;;;;;;5072240;28;20983;-82
2022/08/26 00:40:23;;;;;;;1144.07;999.90;;;26.40;93.50;;;;;;5075707;28;20446;-81
2022/08/26 00:42:50;;;;;;;1139.63;999.90;;;26.40;93.20;;;;;;5072431;28;20471;-81
2022/08/26 00:45:17;;;;;;;1156.20;999.90;;;26.40;93.30;;;;;;5063768;28;20473;-82
2022/08/26 00:47:46;;;;;;;1142.00;999.90;;;26.40;93.30;;;;;;5072268;28;21039;-81
2022/08/26 00:50:16;;;;;;;1134.07;999.90;;;26.40;93.40;;;;;;5063800;28;20458;-81
2022/08/26 00:52:44;;;;;;;1141.20;999.90;;;26.30;93.40;;;;;;5072123;28;20425;-81
2022/08/26 00:55:16;;;;;;;1136.27;999.90;;;26.30;93.40;;;;;;5067002;28;20488;-82
2022/08/26 00:57:45;;;;;;;1136.60;999.90;;;26.30;93.40;;;;;;5065496;28;20434;-82
2022/08/26 01:00:16;;;;;;;1141.40;999.90;;;26.30;93.50;;;;;;5068429;28;20492;-83
2022/08/26 01:02:44;;;;;;;1138.80;999.90;;;26.30;93.60;;;;;;5059591;28;20432;-83
2022/08/26 01:05:11;;;;;;;1133.30;999.90;;;26.20;93.60;;;;;;5044324;28;20516;-82
2022/08/26 01:07:39;;;;;;;1133.07;999.90;;;26.30;93.70;;;;;;5070421;28;20485;-82
2022/08/26 01:10:09;;;;;;;1132.57;999.90;;;26.20;93.70;;;;;;5069309;28;20976;-83
2022/08/26 01:12:40;;;;;;;1135.17;999.90;;;26.20;93.70;;;;;;5075310;28;20435;-83
2022/08/26 01:15:12;;;;;;;1134.40;999.90;;;26.20;93.70;;;;;;5057827;28;20541;-82
2022/08/26 01:17:39;;;;;;;1138.43;999.90;;;26.20;93.80;;;;;;5064677;28;20434;-81
2022/08/26 01:20:17;;;;;;;1130.87;999.90;;;26.20;93.90;;;;;;5055346;28;20548;-81
2022/08/26 01:22:53;;;;;;;1142.37;999.90;;;26.20;93.90;;;;;;5067948;28;20464;-81
2022/08/26 01:25:21;;;;;;;1128.00;999.90;;;26.10;94.00;;;;;;5067995;28;20437;-81
2022/08/26 01:27:48;;;;;;;1130.27;999.90;;;26.10;94.00;;;;;;5072338;28;20479;-82
2022/08/26 01:30:16;;;;;;;1134.10;999.90;;;26.10;94.10;;;;;;5061942;28;20445;-82
2022/08/26 01:32:44;;;;;;;1138.17;999.90;;;26.10;94.20;;;;;;5074627;28;20982;-81
2022/08/26 01:35:11;;;;;;;1130.20;999.90;;;26.10;94.20;;;;;;5056262;28;20451;-80
2022/08/26 01:37:39;;;;;;;1126.83;999.90;;;26.10;94.30;;;;;;5056573;28;21015;-81
2022/08/26 01:40:13;;;;;;;1142.27;999.90;;;26.10;94.40;;;;;;5067087;28;20454;-80
2022/08/26 01:42:41;;;;;;;1131.03;999.90;;;26.00;94.40;;;;;;5066310;28;20526;-79
2022/08/26 01:45:13;;;;;;;1141.53;999.90;;;26.00;94.40;;;;;;5066544;28;20462;-81
2022/08/26 01:47:41;;;;;;;1123.63;999.90;;;26.00;94.50;;;;;;5055989;28;20551;-81
2022/08/26 01:50:14;;;;;;;1135.33;999.90;;;26.00;94.50;;;;;;5045075;28;20450;-81
2022/08/26 01:52:44;;;;;;;1134.63;999.90;;;26.00;94.50;;;;;;5064114;28;20449;-81
2022/08/26 01:55:14;;;;;;;1130.70;999.90;;;26.00;94.60;;;;;;5063330;28;20457;-81
2022/08/26 01:57:42;;;;;;;1131.53;999.90;;;25.90;94.60;;;;;;5043831;28;20457;-82
2022/08/26 02:00:13;;;;;;;1131.17;999.90;;;25.90;94.70;;;;;;5051953;28;21121;-82
2022/08/26 02:02:40;;;;;;;1126.07;999.90;;;25.90;94.70;;;;;;5052170;28;20532;-82
2022/08/26 02:05:11;;;;;;;1118.93;999.90;;;25.90;94.80;;;;;;5059260;28;20451;-82
2022/08/26 02:07:39;;;;;;;1128.50;999.90;;;25.90;94.80;;;;;;5063808;28;20487;-82
2022/08/26 02:10:07;;;;;;;1133.03;999.90;;;25.90;94.90;;;;;;5063000;28;20432;-82
2022/08/26 02:12:35;;;;;;;1130.80;999.90;;;25.90;95.00;;;;;;5052279;28;20473;-82
2022/08/26 02:15:06;;;;;;;1130.40;999.90;;;25.80;95.00;;;;;;5057895;28;20461;-82
2022/08/26 02:17:37;;;;;;;1122.83;999.90;;;25.80;95.00;;;;;;5052325;28;20507;-81
2022/08/26 02:20:05;;;;;;;1127.67;999.90;;;25.80;95.10;;;;;;5056636;28;20486;-81
2022/08/26 02:22:33;;;;;;;1129.63;999.90;;;25.80;95.10;;;;;;5049983;28;20461;-82
2022/08/26 02:25:06;;;;;;;1117.10;999.90;;;25.70;95.10;;;;;;5041940;28;20766;-81
2022/08/26 02:27:35;;;;;;;1122.37;999.90;;;25.70;95.20;;;;;;5041978;28;20481;-81
2022/08/26 02:30:09;;;;;;;1120.23;999.90;;;25.70;95.20;;;;;;5041907;28;20635;-81
2022/08/26 02:32:36;;;;;;;1127.93;999.90;;;25.70;95.30;;;;;;5065573;28;20973;-81
2022/08/26 02:35:04;;;;;;;1123.73;999.90;;;25.70;95.30;;;;;;5062718;28;20477;-81
2022/08/26 02:37:32;;;;;;;1137.77;999.90;;;25.70;95.40;;;;;;5071407;28;20556;-82
2022/08/26 02:40:00;;;;;;;1123.60;999.90;;;25.60;95.40;;;;;;5064795;28;20460;-81
2022/08/26 02:42:27;;;;;;;1120.97;999.90;;;25.70;95.50;;;;;;5059337;28;20449;-81
2022/08/26 02:44:56;;;;;;;1132.83;999.90;;;25.60;95.50;;;;;;5066108;28;20864;-82
2022/08/26 02:47:24;;;;;;;1109.60;999.90;;;25.60;95.60;;;;;;5062753;28;20557;-81
2022/08/26 02:49:51;;;;;;;1123.63;999.90;;;25.50;95.60;;;;;;5059601;28;20497;-81
2022/08/26 02:52:18;;;;;;;1120.50;999.90;;;25.60;95.70;;;;;;5062190;28;20492;-81
2022/08/26 02:54:45;;;;;;;1126.63;999.90;;;25.50;95.70;;;;;;5056243;28;20568;-81
2022/08/26 02:57:12;;;;;;;1123.13;999.90;;;25.50;95.80;;;;;;5071844;28;20510;-81
2022/08/26 02:59:40;;;;;;;1118.93;999.90;;;25.50;95.80;;;;;;5059305;28;20512;-81
2022/08/26 03:02:10;;;;;;;1113.83;999.90;;;25.50;95.90;;;;;;5071059;28;20418;-82
2022/08/26 03:04:37;;;;;;;1106.70;999.90;;;25.50;95.90;;;;;;5066316;28;20465;-82
2022/08/26 03:07:05;;;;;;;1115.30;999.90;;;25.40;96.00;;;;;;5061917;28;20477;-81
2022/08/26 03:09:31;;;;;;;1117.73;999.90;;;25.50;96.10;;;;;;5070018;28;21299;-80
2022/08/26 03:11:59;;;;;;;1116.63;999.90;;;25.40;96.10;;;;;;5063600;28;20933;-81
2022/08/26 03:14:27;;;;;;;1111.97;999.90;;;25.40;96.10;;;;;;5068382;28;20544;-82
2022/08/26 03:16:54;;;;;;;1118.33;999.90;;;25.40;96.20;;;;;;5073255;28;20433;-82
2022/08/26 03:19:24;;;;;;;1122.30;999.90;;;25.40;96.30;;;;;;5061620;28;20562;-81
2022/08/26 03:21:51;;;;;;;1111.77;999.90;;;25.30;96.30;;;;;;5058871;28;20484;-81
2022/08/26 03:24:19;;;;;;;1117.40;999.90;;;25.30;96.40;;;;;;5064097;28;20454;-82
2022/08/26 03:26:46;;;;;;;1116.13;999.90;;;25.30;96.50;;;;;;5067628;28;20453;-82
2022/08/26 03:31:54;;;;;;;1119.50;999.90;;;25.30;96.60;;;;;;5026488;28;20976;-83
2022/08/26 03:34:22;;;;;;;1121.37;999.90;;;25.30;96.70;;;;;;5054339;28;20746;-81
2022/08/26 03:36:49;;;;;;;1116.10;999.90;;;25.20;96.70;;;;;;5064139;28;20484;-81
2022/08/26 03:39:15;;;;;;;1111.63;999.90;;;25.30;96.80;;;;;;5068615;28;20476;-82
2022/08/26 03:41:43;;;;;;;1109.93;999.90;;;25.20;96.80;;;;;;5066656;28;20462;-81
2022/08/26 03:44:11;;;;;;;1112.03;999.90;;;25.20;96.90;;;;;;5078417;28;20460;-81
2022/08/26 03:46:39;;;;;;;1104.93;999.90;;;25.20;96.90;;;;;;5076041;28;20446;-81
2022/08/26 03:49:07;;;;;;;1104.70;999.90;;;25.10;97.00;;;;;;5074682;28;20485;-80
2022/08/26 03:51:39;;;;;;;1108.87;999.90;;;25.10;97.10;;;;;;5046136;28;20964;-82
2022/08/26 03:54:06;;;;;;;1104.83;999.90;;;25.10;97.10;;;;;;5044595;28;21023;-82
2022/08/26 03:56:33;;;;;;;1100.17;999.50;;;25.10;97.20;;;;;;5054206;28;20454;-82
2022/08/26 03:59:01;;;;;;;1102.40;999.90;;;25.10;97.30;;;;;;5049676;28;20476;-82
2022/08/26 04:01:28;;;;;;;1110.47;999.90;;;25.10;97.30;;;;;;5055756;28;20524;-82
2022/08/26 04:03:58;;;;;;;1102.60;999.90;;;25.00;97.70;;;;;;5056922;28;20460;-82
2022/08/26 04:06:27;;;;;;;1107.20;999.90;;;25.10;97.50;;;;;;5044433;28;20504;-82
2022/08/26 04:08:56;;;;;;;1109.82;999.90;;;25.00;97.50;;;;;;5077881;23;20494;-76
2022/08/26 04:11:30;;;;;;;1100.10;999.90;;;25.00;97.50;;;;;;5035833;28;20212;-76
2022/08/26 04:13:58;;;;;;;1099.10;998.97;;;25.00;97.60;;;;;;5036771;28;20465;-78
2022/08/26 04:16:26;;;;;;;1110.50;999.90;;;25.00;97.70;;;;;;5027830;28;20216;-76
2022/08/26 04:18:53;;;;;;;1112.17;999.90;;;24.90;97.70;;;;;;5038671;28;20831;-76
2022/08/26 04:21:20;;;;;;;1105.43;999.90;;;24.90;97.80;;;;;;5034690;28;20455;-76
2022/08/26 04:23:47;;;;;;;1109.03;999.90;;;24.90;97.90;;;;;;5037970;28;20457;-76
2022/08/26 04:26:16;;;;;;;1099.10;999.90;;;24.90;97.90;;;;;;5032510;28;20567;-76
2022/08/26 04:28:42;;;;;;;1101.73;999.90;;;24.80;97.90;;;;;;5034362;28;20477;-76
2022/08/26 04:31:10;;;;;;;1111.57;999.90;;;24.80;98.00;;;;;;5032263;28;20458;-76
2022/08/26 04:33:37;;;;;;;1097.97;999.60;;;24.80;98.10;;;;;;5038415;28;20205;-76
2022/08/26 04:36:06;;;;;;;1108.33;999.90;;;24.80;98.20;;;;;;5026938;28;20462;-78
2022/08/26 04:38:33;;;;;;;1104.53;999.90;;;24.80;98.30;;;;;;5038281;28;20453;-80
2022/08/26 04:41:02;;;;;;;1090.85;996.30;;;24.80;98.30;;;;;;5039851;28;20650;-79
2022/08/26 04:43:30;;;;;;;1101.00;999.87;;;24.80;98.40;;;;;;5042126;28;20202;-78
2022/08/26 04:45:59;;;;;;;1094.03;998.92;;;24.70;98.40;;;;;;5033223;28;21181;-78
2022/08/26 04:48:27;;;;;;;1096.43;998.63;;;24.70;98.50;;;;;;5037779;28;20259;-77
2022/08/26 04:50:54;;;;;;;1090.53;997.07;;;24.70;98.50;;;;;;5034961;28;20234;-78
2022/08/26 04:53:21;;;;;;;1092.82;997.28;;;24.70;98.60;;;;;;5032797;28;20496;-77
2022/08/26 04:55:48;;;;;;;1100.20;999.63;;;24.70;98.70;;;;;;5030705;28;20199;-75
2022/08/26 04:58:16;;;;;;;1090.18;995.88;;;24.60;98.70;;;;;;5029848;28;20200;-78
2022/08/26 05:00:45;;;;;;;1097.70;999.10;;;24.60;98.80;;;;;;5023741;28;20202;-80
2022/08/26 05:03:12;;;;;;;1093.57;997.47;;;24.60;98.90;;;;;;5024276;28;20196;-79
2022/08/26 05:05:41;;;;;;;1099.45;999.42;;;24.60;99.00;;;;;;5026203;28;20206;-78
2022/08/26 05:08:08;;;;;;;1091.15;996.58;;;24.60;99.10;;;;;;5028502;28;22226;-79
2022/08/26 05:10:39;;;;;;;1095.95;998.42;;;24.60;99.20;;;;;;5029284;28;20237;-78
2022/08/26 05:13:06;;;;;;;1108.18;999.90;;;24.60;99.60;;;;;;5023378;28;20195;-77
2022/08/26 05:15:34;;;;;;;1095.85;998.53;;;24.60;99.40;;;;;;5029462;28;20203;-77
2022/08/26 05:18:02;;;;;;;1096.15;998.67;;;24.50;99.40;;;;;;5030259;28;20196;-77
2022/08/26 05:20:31;;;;;;;1097.72;999.10;;;24.50;99.50;;;;;;5025637;28;20211;-77
2022/08/26 05:22:59;;;;;;;1083.57;991.75;;;24.50;99.60;;;;;;5029766;28;20618;-77
2022/08/26 05:25:26;;;;;;;1079.10;988.15;;;24.50;99.60;;;;;;5030223;28;20204;-77
2022/08/26 05:27:52;;;;;;;1095.95;998.72;;;24.50;99.70;;;;;;5029830;28;20220;-77
2022/08/26 05:30:19;;;;;;;1100.68;999.10;;;24.50;99.80;;;;;;5026310;28;20579;-77
2022/08/26 05:32:47;;;;;;;1085.70;993.47;;;24.50;99.90;;;;;;5029911;28;20203;-77
2022/08/26 05:35:16;;;;;;;1090.85;996.55;;;24.50;99.90;;;;;;5026620;28;20200;-77
2022/08/26 05:37:42;;;;;;;1083.18;991.78;;;24.50;99.90;;;;;;5029789;28;20199;-77
2022/08/26 05:40:10;;;;;;;1079.20;988.03;;;24.50;99.90;;;;;;5029548;28;20663;-76
2022/08/26 05:42:37;;;;;;;1081.45;990.00;;;24.50;99.90;;;;;;5030668;28;20200;-77
2022/08/26 05:45:04;;;;;;;1080.10;988.47;;;24.60;99.90;;;;;;5025132;28;20195;-76
2022/08/26 05:47:31;;;;;;;1095.90;998.63;;;24.60;99.90;;;;;;5028304;28;20202;-76
2022/08/26 05:49:59;;;;;;;1088.97;995.83;;;24.50;99.90;;;;;;5026011;28;20203;-76
2022/08/26 05:52:27;;;;;;;1083.45;991.78;;;24.50;99.90;;;;;;5024457;28;20192;-76
2022/08/26 05:54:54;;;;;;;1079.68;988.33;;;24.50;99.90;;;;;;5028443;28;20198;-76
2022/08/26 05:57:20;;;;;;;1080.10;988.92;;;24.50;99.90;;;;;;5037049;28;20196;-76
2022/08/26 05:59:47;;;;;;;1089.27;996.57;;;24.50;99.90;;;;;;5025690;28;20206;-77
2022/08/26 06:02:14;;;;;;;1083.43;992.03;;;24.50;99.90;;;;;;5025026;28;20470;-78
2022/08/26 06:04:40;;;;;;;1066.82;976.15;;;24.40;99.90;;;;;;5027830;28;20466;-80
2022/08/26 06:07:07;;;;;;;1087.32;994.92;;;24.50;99.90;;;;;;5026658;28;20203;-78
2022/08/26 06:09:37;;;;;;;1088.63;995.42;;;24.40;99.90;;;;;;5027736;28;20227;-81
2022/08/26 06:12:04;;;;;;;1081.03;990.20;;;24.40;99.90;;;;;;5026905;28;20200;-84
2022/08/26 06:14:31;;;;;;;1084.78;993.03;;;24.40;99.90;;;;;;5023541;28;20211;-79
2022/08/26 06:16:59;;;;;;;1092.85;997.20;;;24.40;99.90;;;;;;5024569;28;20196;-80
2022/08/26 06:19:26;;;;;;;1072.28;981.63;;;24.40;99.90;;;;;;5029070;28;20219;-81
2022/08/26 06:21:53;;;;;;;1078.82;987.55;;;24.40;99.90;;;;;;5020958;28;20192;-81
2022/08/26 06:27:08;;;;;;;1087.03;994.65;;;24.40;99.90;;;;;;5023900;28;20214;-81
2022/08/26 06:29:36;;;;;;;1079.57;988.47;;;24.40;99.90;;;;;;5025810;28;20310;-81
2022/08/26 06:32:03;;;;;;;1084.25;992.60;;;24.40;99.90;;;;;;5024484;28;20206;-83
2022/08/26 06:34:30;;;;;;;1069.47;978.75;;;24.40;99.90;;;;;;5028553;28;20195;-82
2022/08/26 06:36:58;;;;;;;1067.53;977.30;;;24.30;99.90;;;;;;5021764;28;20199;-80
2022/08/26 06:39:25;;;;;;;1075.50;984.10;;;24.40;99.90;;;;;;5029067;28;20200;-76
2022/08/26 06:41:52;;;;;;;1073.43;982.67;;;24.40;99.90;;;;;;5027817;28;20188;-80
2022/08/26 06:44:20;;;;;;;1071.32;980.72;;;24.30;99.90;;;;;;5027738;28;20188;-80
2022/08/26 06:46:47;;;;;;;1083.25;991.75;;;24.30;99.90;;;;;;5028135;28;20200;-80
2022/08/26 06:49:13;;;;;;;1077.88;987.15;;;24.30;99.90;;;;;;5027875;28;20223;-79
2022/08/26 06:51:41;;;;;;;1076.32;985.25;;;24.30;99.90;;;;;;5027315;28;20252;-79
2022/08/26 06:54:08;;;;;;;1073.63;983.05;;;24.30;99.90;;;;;;5029095;28;20700;-78
2022/08/26 06:56:37;;;;;;;1077.75;987.13;;;24.30;99.90;;;;;;5027087;28;20192;-80
2022/08/26 06:59:05;;;;;;;1085.95;993.65;;;24.30;99.90;;;;;;5027218;28;20200;-79
2022/08/26 07:01:36;;;;;;;1065.60;975.17;;;24.30;99.90;;;;;;5025254;28;20202;-79
2022/08/26 07:04:06;;;;;;;1078.53;987.50;;;24.30;99.90;;;;;;5037183;28;20195;-79
2022/08/26 07:06:37;;;;;;;1076.18;985.40;;;24.30;99.90;;;;;;5027374;28;20196;-84
2022/08/26 07:09:07;;;;;;;1067.70;977.20;;;24.30;99.90;;;;;;5026070;28;20234;-85
2022/08/26 07:11:35;;;;;;;1072.90;982.17;;;24.30;99.90;;;;;;5027845;28;20461;-80
2022/08/26 07:14:02;;;;;;;1065.53;975.00;;;24.30;99.90;;;;;;5025832;28;20192;-80
2022/08/26 07:16:29;;;;;;;1081.60;990.78;;;24.30;99.90;;;;;;5027308;28;20196;-81
2022/08/26 07:18:58;;;;;;;1089.18;994.90;;;24.30;99.90;;;;;;5028275;28;20211;-81
2022/08/26 07:21:25;;;;;;;1076.10;985.55;;;24.30;99.90;;;;;;5020811;28;20207;-81
2022/08/26 07:23:52;;;;;;;1073.45;982.75;;;24.30;99.90;;;;;;5029176;28;20223;-82
2022/08/26 07:26:22;;;;;;;1083.78;992.38;;;24.30;99.90;;;;;;5029277;28;20200;-81
2022/08/26 07:28:51;;;;;;;1081.80;990.78;;;24.30;99.90;;;;;;5025374;28;20502;-82
2022/08/26 07:31:19;;;;;;;1070.50;979.90;;;24.30;99.90;;;;;;5028478;28;20649;-82
2022/08/26 07:33:46;;;;;;;1076.38;985.35;;;24.30;99.90;;;;;;5029173;28;20294;-81
2022/08/26 07:36:17;;;;;;;1076.43;985.70;;;24.30;99.90;;;;;;5023780;28;20660;-81
2022/08/26 07:38:44;;;;;;;1071.35;980.67;;;24.30;99.90;;;;;;5026866;28;20196;-77
2022/08/26 07:41:12;;;;;;;1079.90;988.72;;;24.30;99.90;;;;;;5023933;28;20196;-77
2022/08/26 07:43:40;;;;;;;1064.72;974.65;;;24.30;99.90;;;;;;5024583;28;20567;-77
2022/08/26 07:46:07;;;;;;;1075.53;984.00;;;24.30;99.90;;;;;;5027472;28;20220;-78
2022/08/26 07:48:35;;;;;;;1075.55;984.90;;;24.30;99.90;;;;;;5028465;28;20220;-78
2022/08/26 07:51:02;;;;;;;1071.05;980.42;;;24.30;99.90;;;;;;5013128;28;20212;-78
2022/08/26 07:53:30;;;;;;;1079.57;988.15;;;24.30;99.90;;;;;;5027960;28;20199;-76
2022/08/26 07:55:58;;;;;;;1065.45;975.05;;;24.30;99.90;;;;;;5022629;28;20199;-76
2022/08/26 07:58:25;;;;;;;1090.75;995.92;;;24.30;99.90;;;;;;5033706;28;20195;-79
2022/08/26 08:00:51;;;;;;;1063.88;973.25;;;24.30;99.90;;;;;;5033473;28;20196;-76
2022/08/26 08:03:19;;;;;;;1086.72;994.42;;;24.30;99.90;;;;;;5036899;28;20204;-77
2022/08/26 08:05:46;;;;;;;1063.43;972.80;;;24.30;99.90;;;;;;5036819;28;20196;-76
2022/08/26 08:08:13;;;;;;;1064.00;973.75;;;24.30;99.90;;;;;;5028425;28;20206;-77
2022/08/26 08:10:43;;;;;;;1073.45;982.88;;;24.30;99.90;;;;;;5025597;28;20261;-78
2022/08/26 08:13:10;;;;;;;1068.00;977.33;;;24.30;99.90;;;;;;5025466;28;20192;-77
2022/08/26 08:15:36;;;;;;;1083.25;991.15;;;24.30;99.90;;;;;;5023145;28;20661;-78
2022/08/26 08:18:05;;;;;;;1074.78;983.90;;;24.30;99.90;;;;;;5027828;28;20199;-78
2022/08/26 08:20:32;;;;;;;1073.88;982.65;;;24.30;99.90;;;;;;5026339;28;21020;-78
2022/08/26 08:23:00;;;;;;;1082.25;990.33;;;24.30;99.90;;;;;;5027442;28;20655;-77
2022/08/26 08:25:28;;;;;;;1072.50;981.65;;;24.30;99.90;;;;;;5027317;28;20208;-78
2022/08/26 08:27:56;;;;;;;1082.30;991.22;;;24.30;99.90;;;;;;5026145;28;20200;-79
2022/08/26 08:30:23;;;;;;;1070.88;980.28;;;24.30;99.90;;;;;;5025060;28;20238;-78
2022/08/26 08:32:50;;;;;;;1060.80;970.65;;;24.30;99.90;;;;;;5026492;28;20638;-78
2022/08/26 08:35:19;;;;;;;1077.50;986.75;;;24.30;99.90;;;;;;5025727;28;20243;-79
2022/08/26 08:37:46;;;;;;;1060.05;969.70;;;24.40;99.90;;;;;;5027706;28;20241;-78
2022/08/26 08:40:16;;;;;;;1076.70;985.97;;;24.30;99.90;;;;;;5025906;28;20195;-77
2022/08/26 08:42:45;;;;;;;1062.28;971.95;;;24.40;99.90;;;;;;5025380;28;20202;-77
2022/08/26 08:45:19;;;;;;;1066.82;976.47;;;24.40;99.90;;;;;;5030025;28;20289;-78
2022/08/26 08:47:51;;;;;;;1083.10;991.20;;;24.40;99.90;;;;;;5023505;28;20227;-78
2022/08/26 08:50:22;;;;;;;1070.28;979.83;;;24.40;99.90;;;;;;5027140;28;20235;-77
2022/08/26 08:52:57;;;;;;;1066.82;976.40;;;24.40;99.90;;;;;;5026959;28;20208;-78
2022/08/26 08:55:29;;;;;;;1060.20;970.08;;;24.40;99.90;;;;;;5026297;28;20488;-78
2022/08/26 08:58:02;;;;;;;1063.80;973.33;;;24.40;99.90;;;;;;5024920;28;20508;-78
2022/08/26 09:00:38;;;;;;;1072.15;981.83;;;24.40;99.90;;;;;;5030888;28;20571;-78
2022/08/26 09:03:12;;;;;;;1063.57;973.35;;;24.50;99.90;;;;;;5022596;28;20188;-78
2022/08/26 09:05:43;;;;;;;1079.22;988.30;;;24.50;99.90;;;;;;5028331;28;20721;-78
2022/08/26 09:08:15;;;;;;;1064.78;974.58;;;24.50;99.90;;;;;;5030897;28;20604;-78
2022/08/26 09:10:47;;;;;;;1082.10;990.58;;;24.50;99.90;;;;;;5031219;28;20216;-77
2022/08/26 09:13:16;;;;;;;1074.13;983.58;;;24.50;99.90;;;;;;5019327;28;20196;-78
2022/08/26 09:15:55;;;;;;;1077.03;986.15;;;24.50;99.90;;;;;;5032042;28;20223;-76
2022/08/26 09:18:33;;;;;;;1076.60;985.92;;;24.50;99.90;;;;;;5026476;28;20264;-77
2022/08/26 09:21:03;;;;;;;1075.32;984.63;;;24.60;99.90;;;;;;5029668;28;20195;-77
2022/08/26 09:23:31;;;;;;;1067.45;977.10;;;24.60;99.90;;;;;;5031376;28;20686;-77
2022/08/26 09:26:00;;;;;;;1078.40;987.88;;;24.60;99.90;;;;;;5028271;28;20671;-77
2022/08/26 09:28:30;;;;;;;1080.97;990.28;;;24.60;99.90;;;;;;5026569;28;20199;-77
2022/08/26 09:31:11;;;;;;;1089.40;996.08;;;24.60;99.90;;;;;;5031309;28;20215;-77
2022/08/26 09:33:40;;;;;;;1073.70;983.28;;;24.60;99.90;;;;;;5031105;28;20260;-76
2022/08/26 09:36:25;;;;;;;1074.18;983.65;;;24.60;99.90;;;;;;5022758;28;20665;-76
2022/08/26 09:38:53;;;;;;;1077.22;986.50;;;24.60;99.90;;;;;;5024292;28;20210;-76
2022/08/26 09:41:24;;;;;;;1068.95;978.72;;;24.70;99.90;;;;;;5023446;28;20197;-75
2022/08/26 09:44:19;;;;;;;1071.97;981.72;;;24.60;99.90;;;;;;5027839;28;20270;-78
2022/08/26 09:46:55;;;;;;;1075.90;985.65;;;24.70;99.90;;;;;;4978144;28;20590;-78
2022/08/26 09:49:29;;;;;;;1078.82;988.22;;;24.70;99.90;;;;;;5030968;28;20586;-80
2022/08/26 09:52:17;;;;;;;1070.25;979.80;;;24.70;99.90;;;;;;5028835;28;20225;-79
2022/08/26 09:54:57;;;;;;;1069.78;979.47;;;24.70;99.90;;;;;;5029563;28;20452;-77
2022/08/26 09:57:27;;;;;;;1071.32;980.88;;;24.70;99.90;;;;;;5030347;28;20195;-80
2022/08/26 09:59:53;;;;;;;1091.10;997.08;;;24.70;99.90;;;;;;5027144;28;20667;-80
2022/08/26 10:02:37;;;;;;;1075.72;985.22;;;24.70;99.90;;;;;;5030459;28;20200;-78
2022/08/26 10:05:08;;;;;;;1078.68;988.13;;;24.70;99.90;;;;;;5026460;28;20567;-84
2022/08/26 10:07:40;;;;;;;1061.55;971.60;;;24.70;99.90;;;;;;5025003;28;20522;-82
2022/08/26 10:10:10;;;;;;;1089.43;996.35;;;24.80;99.90;;;;;;5025528;28;20258;-80
2022/08/26 10:12:44;;;;;;;1083.40;991.97;;;24.80;99.90;;;;;;5029707;28;20191;-81
2022/08/26 10:15:13;;;;;;;1094.80;998.63;;;24.80;99.90;;;;;;5033016;28;20215;-80
2022/08/26 10:17:47;;;;;;;1087.35;994.85;;;24.80;99.90;;;;;;5027005;28;20203;-80
2022/08/26 10:20:17;;;;;;;1081.82;990.83;;;24.80;99.90;;;;;;5030237;28;20203;-82
2022/08/26 10:22:47;;;;;;;1076.43;985.88;;;24.80;99.90;;;;;;5032188;28;20199;-79
2022/08/26 10:25:18;;;;;;;1086.93;995.03;;;24.90;99.90;;;;;;5030169;28;20191;-79
2022/08/26 10:27:50;;;;;;;1086.72;995.25;;;24.90;99.90;;;;;;5026212;28;20449;-78
2022/08/26 10:30:20;;;;;;;1083.32;991.95;;;24.90;99.90;;;;;;5027909;28;20581;-77
2022/08/26 10:32:52;;;;;;;1089.50;996.67;;;24.90;99.90;;;;;;5030109;28;20210;-79
2022/08/26 10:35:20;;;;;;;1080.30;989.67;;;24.90;99.90;;;;;;5026864;28;20795;-78
2022/08/26 10:37:50;;;;;;;1081.38;990.40;;;25.00;99.90;;;;;;5027563;28;20203;-80
2022/08/26 10:40:23;;;;;;;1100.90;999.90;;;25.00;99.90;;;;;;5030111;28;20206;-84
2022/08/26 10:42:58;;;;;;;1089.93;996.83;;;25.00;99.90;;;;;;5027013;28;20196;-81
2022/08/26 10:45:28;;;;;;;1087.40;994.72;;;25.00;99.90;;;;;;5027719;28;20454;-81
2022/08/26 10:48:04;;;;;;;1092.95;997.67;;;25.00;99.90;;;;;;5028235;28;20199;-82
2022/08/26 10:50:34;;;;;;;1084.85;993.08;;;25.10;99.90;;;;;;5027754;28;20219;-81
2022/08/26 10:53:07;;;;;;;1097.68;998.92;;;25.10;99.90;;;;;;5021883;28;20198;-79
2022/08/26 10:55:38;;;;;;;1088.37;995.73;;;25.10;99.90;;;;;;5029693;28;20677;-80
2022/08/26 10:58:29;;;;;;;1098.97;999.25;;;25.10;99.90;;;;;;5024879;28;20437;-84
2022/08/26 11:03:59;;;;;;;1091.80;997.08;;;25.10;99.90;;;;;;5032305;28;20433;-82
2022/08/26 11:06:27;;;;;;;1088.73;996.23;;;25.10;99.90;;;;;;5022612;28;20254;-80
2022/08/26 11:08:56;;;;;;;1094.17;997.90;;;25.10;99.90;;;;;;5039589;28;20440;-81
2022/08/26 11:11:45;;;;;;;1087.47;995.13;;;25.20;99.90;;;;;;5026820;28;20484;-81
2022/08/26 11:14:29;;;;;;;1093.47;998.47;;;25.20;99.90;;;;;;5027090;28;20469;-81
2022/08/26 11:16:57;;;;;;;1097.97;999.10;;;25.20;99.90;;;;;;5028195;28;20462;-81
2022/08/26 11:19:59;;;;;;;1093.57;998.50;;;25.20;99.90;;;;;;5029545;28;20255;-81
2022/08/26 11:22:28;;;;;;;1086.28;994.00;;;25.20;99.90;;;;;;5027258;28;20450;-76
2022/08/26 11:25:11;;;;;;;1103.25;999.90;;;25.20;99.90;;;;;;5029784;28;20188;-77
2022/08/26 11:27:58;;;;;;;1099.97;999.90;;;25.20;99.90;;;;;;5032760;28;20186;-81
2022/08/26 11:30:49;;;;;;;1101.30;999.72;;;25.20;99.90;;;;;;5030948;28;20478;-77
2022/08/26 11:33:46;;;;;;;1094.57;998.70;;;25.20;99.90;;;;;;5030846;28;20191;-78
2022/08/26 11:36:34;;;;;;;1094.80;998.83;;;25.20;99.90;;;;;;5029114;28;20970;-76
2022/08/26 11:39:02;;;;;;;1084.40;993.30;;;25.30;99.90;;;;;;5033514;28;20408;-77
2022/08/26 11:41:30;;;;;;;1087.20;994.97;;;25.30;99.90;;;;;;5032493;28;20421;-77
2022/08/26 11:43:58;;;;;;;1097.03;999.57;;;25.30;99.90;;;;;;5033384;28;20417;-78
2022/08/26 11:46:27;;;;;;;1097.20;999.67;;;25.30;99.90;;;;;;5025028;28;20504;-78
2022/08/26 11:49:01;;;;;;;1097.30;999.50;;;25.30;99.90;;;;;;5031939;28;20817;-79
2022/08/26 11:51:30;;;;;;;1084.43;993.27;;;25.30;99.90;;;;;;5031536;28;20563;-78
2022/08/26 11:54:10;;;;;;;1090.13;997.13;;;25.40;99.90;;;;;;5032226;28;20927;-79
2022/08/26 11:56:39;;;;;;;1083.30;991.47;;;25.40;99.90;;;;;;5033414;28;20465;-77
2022/08/26 11:59:08;;;;;;;1100.22;999.33;;;25.40;99.90;;;;;;5031617;28;20226;-77
2022/08/26 12:01:37;;;;;;;1092.80;997.42;;;25.40;99.90;;;;;;5032070;28;20188;-77
2022/08/26 12:04:07;;;;;;;1088.90;996.47;;;25.40;99.90;;;;;;5032941;28;20223;-76
2022/08/26 12:06:38;;;;;;;1099.10;999.25;;;25.40;99.90;;;;;;5024409;28;20565;-77
2022/08/26 12:09:11;;;;;;;1101.07;999.90;;;25.40;99.90;;;;;;5029230;28;20195;-78
2022/08/26 12:11:38;;;;;;;1089.80;996.73;;;25.40;99.90;;;;;;5028669;28;20550;-77
2022/08/26 12:14:07;;;;;;;1091.30;997.50;;;25.40;99.90;;;;;;5028509;28;20458;-77
2022/08/26 12:16:36;;;;;;;1096.90;998.80;;;25.40;99.90;;;;;;5032190;28;20446;-77
2022/08/26 12:19:23;;;;;;;1095.07;998.50;;;25.40;99.90;;;;;;5031187;28;20728;-78